Résultats événements

07/07/2017 Altriman 2017-Triathlon Sprint




Sortie natation

Arrivée vélo

Arrivée
Categorie:

Clt Temps de course Nom Dos Cat Temps sur l'intervalle Clt int. Gain
1 01:04:49 RANCE GIMENEZ-SALINAS Alvaro 1090 MVE 00:20:56 2 0
2 01:07:08 CACHARD Benoit 1013 MCA 00:21:45 7 1
3 01:07:47 NEVEU Clement 1114 MSE 00:22:51 12 -1
4 01:08:33 ORIOL Mas 1068 MSE 00:21:20 5 0
5 01:09:31 PERICAS FIGUERAS Arnau 1097 MSE 00:21:09 3 2
6 01:10:02 BAELLA Gerard 1034 MVE 00:21:12 4 4
7 01:10:26 BUTEL Thibault 1020 MCA 00:20:39 1 7
8 01:10:27 RATERA Daniel 1100 MJU 00:21:36 6 3
9 01:11:12 REAL SALANOVA Alejandro 1147 MSE 00:22:48 10 -1
10 01:11:27 BRANCHOUX Stephane 1121 MVE 00:23:29 13 -5
11 01:11:39 ZORRILLA Marius 1140 MSE 00:22:50 11 -2
12 01:11:48 DI VINCENZO Christophe 1016 MSE 00:23:44 14 -6
13 01:11:48 LEMEE Lilian 1004 MCA 00:22:05 9 0
14 01:14:08 JONET Thomas 1089 MCA 00:25:09 24 -2
15 01:14:22 DESCOURVIERES Sebastien 1082 MVE 00:24:18 17 1
16 01:15:13 RELAñO Marc 1091 MSE 00:25:20 25 -1
17 01:17:14 FIORI Patrick 1024 MVE 00:25:23 26 0
18 01:17:16 BURNET Clara 1115 FCA 00:25:07 23 0
19 01:17:24 MONTRET Christophe 1021 MVE 00:21:58 8 11
20 01:17:38 VAQUE-DURBAN Yanis 1093 MJU 00:24:13 16 1
21 01:18:36 VERA ORTIZ Adrian 1135 MSE 00:25:50 28 -2
22 01:19:17 DUMAS Jules 1052 MCA 00:26:17 33 -2
23 01:19:24 MAZELLE Paul 1002 MJU 00:25:03 22 0
24 01:19:43 VEROT Kévin 1104 MSE 00:24:22 18 5
25 01:19:52 BODIN Emmanuel 1025 MVE 00:24:58 21 0
26 01:20:26 CHARTON Frédéric 1150 MVE 00:26:29 36 -4
27 01:21:44 MUñOZ LOPEZ Joel 1067 MSE 00:27:20 49 -3
28 01:22:31 TAHIR Marc 1107 MVE 00:26:39 38 5
29 01:22:32 COUFFIGNAL Anais 1009 FJU 00:27:14 47 -1
30 01:22:44 SORIANO CRESPO Sergio 1139 MVE 00:24:40 19 11
31 01:22:48 BUJAS Jean pierre 1124 MVE 00:26:57 42 0
32 01:23:02 SAJOUS Caroline 1081 FSE 00:27:09 46 2
33 01:23:19 JONET Patrick 1112 MVE 00:27:28 50 -1
34 01:23:45 RONCERAY Lilian 1084 MSE 00:28:33 58 -7
35 01:24:05 MEDINA Cedric 1065 MSE 00:27:56 54 0
36 01:24:33 ANGLES Didier 1033 MVE 00:26:05 31 10
37 01:24:35 BAUTISTA DE HOZ Alberto 1035 MVE 00:27:06 44 0
38 01:24:36 ANDREOTTI Marine 1078 FSE 00:26:11 32 7
39 01:25:19 JUSTICE-ESPENAN Arthur 1099 MSE 00:27:07 45 4
40 01:25:26 VAN DE VEIRE Damien 1010 MSE 00:24:55 20 16
41 01:25:31 LOSQUIN Estelle 1142 FSE 00:26:25 34 8
42 01:25:42 TELLER Fabian 1076 MSE 00:26:33 37 8
43 01:25:58 CLAVERIE Pierre-yves 1137 MSE 00:27:56 53 -3
44 01:26:04 LATGER Malvina 1019 FSE 00:28:41 59 -8
45 01:26:39 RIU Mathieu 1070 MCA 00:28:58 64 -6
46 01:26:43 NEREA Lazcano 1023 FSE 00:29:13 65 -8
47 01:26:48 BILANGE Sylvain 1036 MSE 00:28:15 55 0
48 01:27:07 PARADOUX BENOIT Ophelie 1122 FCA 00:28:49 62 -4
49 01:27:22 PRACHT Elisenda 1092 FVE 00:26:29 35 10
50 01:27:30 ANSELME Morgane 1117 FSE 00:28:46 60 -2
51 01:27:41 SISTACH Mael 1075 MJU 00:26:41 39 10
52 01:27:51 CAMBON Jf 1134 MVE 00:27:03 43 6
53 01:27:58 BROQUA Herve 1018 MVE 00:25:34 27 20
54 01:28:17 AUVERGNE Louis 1088 MCA 00:30:08 78 -12
55 01:28:23 GUINARD-BRUN Félix 1055 MSE 00:26:51 41 10
56 01:28:25 BRUNIAUX Elodie 1136 FSE 00:28:58 63 -5
57 01:28:27 CONESA LARA Iban 1048 MSE 00:26:04 30 15
58 01:28:36 BEDRINES Laurent 1083 MVE 00:27:16 48 5
59 01:29:11 VERGELY MAREVERY Christine 1077 FVE 00:29:26 67 -6
60 01:29:13 SANTOS DE OLIVEIRA Luis 1086 MVE 00:29:34 68 -8
61 01:29:14 VERGNOLE Benoit 1001 MVE 00:29:13 66 -7
62 01:29:42 MONTSERRAT Jordi 1149 MSE 00:26:02 29 22
63 01:29:48 MERCADIER Lucas 1109 MSE 00:27:36 51 6
64 01:29:52 MONTAñA COSTA Mireia 1066 FSE 00:26:48 40 15
65 01:30:13 MARTA Mirón 1138 FSE 00:28:20 56 1
66 01:30:35 DUCHEMIN Matis 1030 MCA 00:29:38 69 -6
67 01:31:12 DELPOUX Luc 1123 MVE 00:29:53 73 -5
68 01:31:31 ALCARAZ VICENS Isabel 1032 FVE 00:30:01 76 -4
69 01:31:36 ANSTATT Jean-claude 1103 MVE 00:31:19 90 -14
70 01:32:01 CHEVALIER Nicolas 1044 MCA 00:29:46 71 0
71 01:32:22 PECQUEUX Laure 1118 FSE 00:28:31 57 14
72 01:32:32 GAMARRO GONZALEZ Paqui 1054 FVE 00:30:07 77 2
73 01:32:51 CORREGE Guillaume 1049 MSE 00:29:45 70 7
74 01:33:03 CHATENET Marc 1085 MVE 00:29:50 72 7
75 01:33:16 BRESSON Laura 1120 FSE 00:31:15 88 -7
76 01:33:47 VERMEIRE Frank 1132 MVE 00:31:27 91 -5
77 01:33:56 MARCEROU Cyril 1143 MVE 00:33:11 105 -20
78 01:33:58 MARTIN Sebastien 1080 MVE 00:27:45 52 14
79 01:34:18 LOPEZ Arnaud 1060 MSE 00:24:06 15 38
80 01:34:20 AUZEIL Michèle 1141 FVE 00:31:37 93 -4
81 01:34:44 BRAL Muriel 1006 FVE 00:30:17 80 8
82 01:35:26 BILLES Richard 1037 MSE 00:32:34 99 -5
83 01:35:59 LAURENT Cecile 1116 FVE 00:30:28 82 8
84 01:36:13 SALA Catherine 1015 FVE 00:31:57 96 4
85 01:36:17 VELASCO Arnaud 1026 MVE 00:33:43 108 -10
86 01:36:22 POLLET Kévin 1102 MSE 00:32:55 102 -4
87 01:36:24 ALBERT Olivier 1131 MSE 00:33:28 107 -9
88 01:36:29 HILIC Sacha 1130 MVE 00:28:46 61 9
89 01:36:53 ROUSSEL Cécile 1106 FSE 00:32:51 100 -2
90 01:37:26 DERRIEN Laurence 1119 FVE 00:33:58 110 -7
91 01:37:36 MORENO Alix 1005 FCA 00:32:53 101 -1
92 01:38:03 FERNANDEZ Ana maria 1003 FVE 00:30:14 79 6
93 01:38:40 SISTACH Errol 1073 MCA 00:30:00 75 11
94 01:38:47 DUPUY Henri 1110 MVE 00:36:49 120 -27
95 01:39:07 PONCE Rosa 1069 FVE 00:31:17 89 5
96 01:39:25 MARAVAL Christelle 1063 FVE 00:30:46 83 7
97 01:39:36 DROGOZ Nicolas 1011 MVE 00:31:46 95 2
98 01:39:55 BRIU Elodie 1040 FSE 00:30:52 84 11
99 01:39:56 LEHUBY Julien 1061 MSE 00:30:52 85 11
100 01:40:19 VERGNOLE Nathalie 1007 MVE 00:30:57 87 12
101 01:40:23 BERNO Pierpaolo 1087 MVE 00:29:58 74 18
102 01:40:24 LEFèVRE Mireille 1098 FVE 00:30:18 81 14
103 01:40:34 COLOGNI Adelaide 1047 FSE 00:33:52 109 -9
104 01:41:04 MOURGUES Marjolaine 1148 FVE 00:34:10 111 -8
105 01:41:05 BENET Lucie 1079 FSE 00:32:27 98 -3
106 01:41:07 LLONCH ABELLA Júlia 1062 FSE 00:32:03 97 5
107 01:41:32 POSTIC David 1144 MVE 00:37:37 125 -21
108 01:42:05 VIDAL Audrey 1108 FSE 00:33:14 106 -1
109 01:42:11 CAMPOMANES Tamara 1041 FSE 00:31:29 92 13
110 01:42:19 CROUZET Line 1028 FVE 00:31:40 94 11
111 01:42:31 NEILL Chris 1105 MVE 00:35:52 116 -18
112 01:42:51 LALOY Justine 1058 FSE 00:33:00 104 1
113 01:42:59 MARTINEZ Sandrine 1101 FVE 00:36:14 117 -18
114 01:43:29 BALLESTER Gaetan 1111 MSE 00:32:59 103 6
115 01:44:55 CAñABATE SANCHEZ Sheila 1042 FSE 00:34:37 113 3
116 01:45:46 GARCIA Ana 1125 FVE 00:36:53 121 -8
117 01:45:57 CABARET Cedric 1145 MSE 00:30:55 86 11
118 01:46:39 CASTELL Robert 1008 MVE 00:36:43 119 -4
119 01:47:40 HERNANDEZ DONAIRE Daniel 1057 MSE 00:37:36 124 -4
120 01:50:38 MARIN Jean claude 1064 MVE 00:37:22 122 5
121 01:50:38 DUCROQ Anne 1133 FVE 00:37:25 123 3
122 01:50:39 DETCHERRY Christian 1050 MVE 00:38:03 126 1
123 01:51:10 BORIEU Christian 1039 MVE 00:42:23 135 -17
124 01:51:10 CLAVé Aurelie 1045 FSE 00:42:24 136 -19
125 01:51:19 FUENTES François 1146 MSE 00:35:46 114 4
126 01:52:40 NICOLINI Benedicte 1014 FVE 00:35:49 115 7
127 01:53:13 COHEN Elisa 1046 FSE 00:36:21 118 7
128 01:54:03 RAHMOUNI Emma 1126 FCA 00:40:16 133 -2
129 01:54:03 RAHMOUNI Abdelouahed 1127 MVE 00:39:51 131 -2
130 01:55:56 DEVOYON Carole 1051 FVE 00:39:35 129 1
131 01:57:45 CABEL Francoise 1129 FVE 00:41:19 134 1
132 01:58:26 GALINDO Emilie 1031 FSE 00:34:29 112 5
133 01:59:33 CHEVALIER Aline 1043 FVE 00:38:34 128 3
134 02:00:00 POIN Sandrine 1012 FVE 00:43:55 137 -4
135 02:00:40 ROSON Beatriz 1071 FVE 00:40:03 132 0
136 02:05:10 BESNARD Isabelle 1027 FSE 00:38:31 127 2
137 02:08:55 SISTACH Clyde 1074 MSE 00:39:43 130 2
138 02:22:55 DESNOS Odile 1029 FVE 00:47:35 138 2


Restez connectés à vos performances